Time;durP1;ratioP1;P1;durP2;ratioP2;P2;SDS_P1;SDS_P2;PMS_P1;PMS_P2;Temp;Humidity;BMP_temperature;BMP_pressure;BME280_temperature;BME280_humidity;BME280_pressure;Samples;Min_cycle;Max_cycle;Signal;HPM_P1;HPM_P2
2023/12/08 00:00:17;;;;;;;63.75;27.05;;;-1.00;99.90;;;;;;5014614;28;20042;-83
2023/12/08 00:02:43;;;;;;;58.25;25.60;;;-1.00;99.90;;;;;;5023040;28;20044;-83
2023/12/08 00:05:09;;;;;;;66.03;25.52;;;-1.00;99.90;;;;;;5033327;28;20114;-82
2023/12/08 00:07:35;;;;;;;52.90;25.08;;;-1.00;99.90;;;;;;5040458;28;20037;-83
2023/12/08 00:10:02;;;;;;;60.30;27.80;;;-1.00;99.90;;;;;;5025202;28;20041;-83
2023/12/08 00:12:28;;;;;;;62.00;25.20;;;-1.00;99.90;;;;;;5034105;28;20025;-83
2023/12/08 00:14:53;;;;;;;58.22;26.77;;;-1.00;99.90;;;;;;5060014;28;20701;-83
2023/12/08 00:17:19;;;;;;;57.58;26.73;;;-1.00;99.90;;;;;;5035947;28;20127;-83
2023/12/08 00:19:45;;;;;;;54.88;25.35;;;-1.00;99.90;;;;;;5042936;28;20037;-83
2023/12/08 00:22:11;;;;;;;58.22;25.98;;;-1.00;99.90;;;;;;5033795;28;20507;-83
2023/12/08 00:24:37;;;;;;;54.10;24.50;;;-1.00;99.90;;;;;;5037893;28;20029;-83
2023/12/08 00:27:03;;;;;;;54.28;25.00;;;-1.00;99.90;;;;;;5035610;28;20531;-84
2023/12/08 00:29:29;;;;;;;56.65;25.42;;;-1.00;99.90;;;;;;5039517;28;20028;-83
2023/12/08 00:31:55;;;;;;;51.72;24.25;;;-1.00;99.90;;;;;;5028519;28;20076;-83
2023/12/08 00:34:20;;;;;;;52.40;22.98;;;-1.00;99.90;;;;;;5045372;28;21142;-84
2023/12/08 00:36:46;;;;;;;54.55;23.30;;;-0.90;99.90;;;;;;5039000;28;20052;-83
2023/12/08 00:39:12;;;;;;;52.22;25.17;;;-0.90;99.90;;;;;;5033180;28;20025;-84
2023/12/08 00:41:37;;;;;;;49.33;24.50;;;-0.90;99.90;;;;;;5038257;28;20112;-84
2023/12/08 00:44:04;;;;;;;58.65;25.45;;;-0.90;99.90;;;;;;5028582;28;20046;-83
2023/12/08 00:46:30;;;;;;;53.33;23.63;;;-0.90;99.90;;;;;;5039735;28;20751;-84
2023/12/08 00:48:56;;;;;;;55.00;25.73;;;-0.90;99.90;;;;;;5021525;28;20025;-83
2023/12/08 00:51:22;;;;;;;59.00;25.77;;;-0.90;99.90;;;;;;5038605;28;20032;-83
2023/12/08 00:53:47;;;;;;;52.75;23.70;;;-0.80;99.90;;;;;;5036714;28;20022;-83
2023/12/08 00:56:13;;;;;;;47.30;23.92;;;-0.90;99.90;;;;;;5040622;28;20585;-83
2023/12/08 00:58:39;;;;;;;51.95;23.23;;;-0.80;99.90;;;;;;5036592;28;20047;-83
2023/12/08 01:01:05;;;;;;;48.95;24.00;;;-0.80;99.90;;;;;;5032173;28;20040;-84
2023/12/08 01:03:30;;;;;;;53.53;23.58;;;-0.80;99.90;;;;;;5037501;28;20025;-83
2023/12/08 01:05:57;;;;;;;51.53;23.80;;;-0.80;99.90;;;;;;5036173;28;20067;-83
2023/12/08 01:08:22;;;;;;;49.20;23.05;;;-0.80;99.90;;;;;;5039753;28;20131;-83
2023/12/08 01:10:48;;;;;;;48.35;22.25;;;-0.80;99.90;;;;;;5037814;28;20113;-84
2023/12/08 01:13:14;;;;;;;48.35;22.83;;;-0.70;99.90;;;;;;5033349;28;20066;-83
2023/12/08 01:15:39;;;;;;;54.30;23.60;;;-0.70;99.90;;;;;;5034960;28;20112;-83
2023/12/08 01:18:05;;;;;;;48.42;23.38;;;-0.70;99.90;;;;;;5028153;28;20083;-83
2023/12/08 01:20:31;;;;;;;49.10;22.05;;;-0.80;99.90;;;;;;5048435;28;20044;-83
2023/12/08 01:22:56;;;;;;;49.65;23.33;;;-0.80;99.90;;;;;;5018425;28;20448;-83
2023/12/08 01:25:22;;;;;;;47.97;22.48;;;-0.80;99.90;;;;;;5053742;28;20124;-84
2023/12/08 01:27:48;;;;;;;44.10;20.90;;;-0.70;99.90;;;;;;5014970;28;20026;-84
2023/12/08 01:30:13;;;;;;;49.05;22.75;;;-0.80;99.90;;;;;;5015212;28;20112;-83
2023/12/08 01:32:39;;;;;;;52.20;22.55;;;-0.70;99.90;;;;;;5018384;28;20018;-84
2023/12/08 01:35:05;;;;;;;46.45;22.08;;;-0.80;99.90;;;;;;5041935;28;20030;-83
2023/12/08 01:37:30;;;;;;;51.55;23.90;;;-0.70;99.90;;;;;;5019802;28;20496;-84
2023/12/08 01:39:56;;;;;;;56.47;24.25;;;-0.70;99.90;;;;;;5015753;28;20116;-83
2023/12/08 01:42:22;;;;;;;44.15;21.42;;;-0.70;99.90;;;;;;5045487;28;20036;-83
2023/12/08 01:44:48;;;;;;;49.13;21.40;;;-0.80;99.90;;;;;;5018119;28;20465;-84
2023/12/08 01:47:15;;;;;;;45.92;22.27;;;-0.80;99.90;;;;;;5024606;28;20127;-84
2023/12/08 01:49:41;;;;;;;46.50;21.83;;;-0.80;99.90;;;;;;5035958;28;20022;-83
2023/12/08 01:52:08;;;;;;;42.17;21.42;;;-0.80;99.90;;;;;;5035515;28;20083;-84
2023/12/08 01:54:34;;;;;;;45.35;21.98;;;-0.70;99.90;;;;;;5020484;28;20025;-84
2023/12/08 01:57:01;;;;;;;48.17;23.02;;;-0.80;99.90;;;;;;5021398;28;20033;-83
2023/12/08 01:59:28;;;;;;;45.10;20.60;;;-0.70;99.90;;;;;;5019311;28;20068;-83
2023/12/08 02:01:54;;;;;;;48.05;23.40;;;-0.70;99.90;;;;;;5010760;28;20030;-83
2023/12/08 02:04:32;;;;;;;44.00;21.08;;;-0.70;99.90;;;;;;5036790;28;20060;-84
2023/12/08 02:06:58;;;;;;;43.22;20.08;;;-0.70;99.90;;;;;;5018730;28;20128;-83
2023/12/08 02:09:23;;;;;;;48.00;22.60;;;-0.70;99.90;;;;;;5039391;28;20096;-83
2023/12/08 02:11:49;;;;;;;42.28;19.83;;;-0.70;99.90;;;;;;5016659;28;20045;-84
2023/12/08 02:14:15;;;;;;;42.95;20.50;;;-0.70;99.90;;;;;;5031771;28;20024;-84
2023/12/08 02:17:16;;;;;;;46.45;21.80;;;-0.70;99.90;;;;;;5036418;28;20116;-84
2023/12/08 02:19:42;;;;;;;47.72;20.50;;;-0.70;99.90;;;;;;5028461;28;20504;-83
2023/12/08 02:22:08;;;;;;;46.00;20.20;;;-0.70;99.90;;;;;;5039136;28;20477;-83
2023/12/08 02:24:34;;;;;;;44.42;20.52;;;-0.70;99.90;;;;;;5034713;28;20029;-84
2023/12/08 02:27:00;;;;;;;42.50;20.67;;;-0.70;99.90;;;;;;5033644;28;20528;-83
2023/12/08 02:29:26;;;;;;;44.70;20.83;;;-0.70;99.90;;;;;;5041104;28;20033;-83
2023/12/08 02:32:34;;;;;;;47.30;22.23;;;-0.60;99.90;;;;;;5037032;28;20061;-83
2023/12/08 02:35:03;;;;;;;47.83;21.17;;;-0.60;99.90;;;;;;4981289;28;20037;-83
2023/12/08 02:37:34;;;;;;;47.45;21.50;;;-0.70;99.90;;;;;;5018824;28;20093;-83
2023/12/08 02:40:02;;;;;;;46.80;20.90;;;-0.70;99.90;;;;;;5019300;28;20033;-84
2023/12/08 02:42:27;;;;;;;43.42;21.20;;;-0.70;99.90;;;;;;5025201;28;20032;-84
2023/12/08 02:44:56;;;;;;;44.72;21.45;;;-0.70;99.90;;;;;;5037167;28;20480;-84
2023/12/08 02:47:22;;;;;;;41.60;19.50;;;-0.70;99.90;;;;;;5044514;28;20384;-84
2023/12/08 02:49:47;;;;;;;43.67;20.60;;;-0.70;99.90;;;;;;5022056;28;20030;-83
2023/12/08 02:52:14;;;;;;;47.45;21.10;;;-0.70;99.90;;;;;;5018111;28;20029;-84
2023/12/08 02:54:40;;;;;;;44.08;21.05;;;-0.80;99.90;;;;;;5036230;28;20087;-84
2023/12/08 02:57:05;;;;;;;52.42;22.00;;;-0.80;99.90;;;;;;5023726;28;20072;-84
2023/12/08 02:59:32;;;;;;;44.38;21.33;;;-0.80;99.90;;;;;;5023082;28;20044;-84
2023/12/08 03:01:58;;;;;;;52.28;22.58;;;-0.80;99.90;;;;;;5017621;28;20028;-84
2023/12/08 03:04:23;;;;;;;56.58;25.92;;;-0.80;99.90;;;;;;5042138;28;20120;-84
2023/12/08 03:06:49;;;;;;;51.78;24.45;;;-0.80;99.90;;;;;;5037972;28;20648;-84
2023/12/08 03:09:15;;;;;;;62.47;25.90;;;-0.80;99.90;;;;;;5044259;28;20523;-84
2023/12/08 03:11:40;;;;;;;49.30;24.42;;;-0.80;99.90;;;;;;5023196;28;20056;-84
2023/12/08 03:14:06;;;;;;;49.70;22.40;;;-0.70;99.90;;;;;;5019639;28;20025;-84
2023/12/08 03:16:32;;;;;;;55.28;24.20;;;-0.70;99.90;;;;;;5025245;28;20115;-84
2023/12/08 03:18:57;;;;;;;50.78;23.85;;;-0.70;99.90;;;;;;5020932;28;20057;-84
2023/12/08 03:21:24;;;;;;;46.10;22.33;;;-0.70;99.90;;;;;;5036598;28;20828;-84
2023/12/08 03:23:50;;;;;;;50.83;21.25;;;-0.70;99.90;;;;;;5039795;28;20116;-84
2023/12/08 03:26:17;;;;;;;44.00;22.00;;;-0.70;99.90;;;;;;5038442;28;20029;-84
2023/12/08 03:28:43;;;;;;;42.92;21.25;;;-0.70;99.90;;;;;;5040232;28;20029;-84
2023/12/08 03:31:26;;;;;;;40.63;20.20;;;-0.70;99.90;;;;;;5040483;28;20026;-84
2023/12/08 03:33:52;;;;;;;44.25;20.08;;;-0.70;99.90;;;;;;5039240;28;20053;-84
2023/12/08 03:36:18;;;;;;;45.67;21.23;;;-0.60;99.90;;;;;;5036135;28;20084;-84
2023/12/08 03:38:44;;;;;;;45.00;21.52;;;-0.60;99.90;;;;;;5024612;28;20030;-84
2023/12/08 03:41:11;;;;;;;42.70;21.02;;;-0.60;99.90;;;;;;5018154;28;20058;-83
2023/12/08 03:43:37;;;;;;;48.03;20.40;;;-0.60;99.90;;;;;;5015776;28;20029;-84
2023/12/08 03:46:04;;;;;;;42.65;20.60;;;-0.60;99.90;;;;;;5019432;28;20511;-84
2023/12/08 03:48:30;;;;;;;44.53;21.70;;;-0.50;99.90;;;;;;5038120;28;20053;-84
2023/12/08 03:50:55;;;;;;;43.28;20.48;;;-0.60;99.90;;;;;;5024727;28;20485;-84
2023/12/08 03:53:21;;;;;;;46.05;21.13;;;-0.60;99.90;;;;;;5042298;28;20025;-84
2023/12/08 03:55:46;;;;;;;44.08;22.40;;;-0.60;99.90;;;;;;5034519;28;20025;-84
2023/12/08 03:58:12;;;;;;;44.80;21.38;;;-0.60;99.90;;;;;;5025960;28;20037;-84
2023/12/08 04:00:38;;;;;;;43.72;21.27;;;-0.60;99.90;;;;;;5014871;28;20492;-84
2023/12/08 04:03:04;;;;;;;48.25;22.20;;;-0.50;99.90;;;;;;5056951;28;20048;-84
2023/12/08 04:05:29;;;;;;;46.92;23.15;;;-0.40;99.90;;;;;;5038828;28;20478;-85
2023/12/08 04:07:55;;;;;;;47.75;22.50;;;-0.50;99.90;;;;;;5036425;28;20029;-83
2023/12/08 04:10:20;;;;;;;42.08;21.33;;;-0.50;99.90;;;;;;5023275;28;20018;-84
2023/12/08 04:12:46;;;;;;;49.28;22.60;;;-0.50;99.90;;;;;;5023520;28;20056;-83
2023/12/08 04:15:12;;;;;;;44.78;22.05;;;-0.40;99.90;;;;;;5038277;28;20032;-84
2023/12/08 04:17:37;;;;;;;44.45;20.63;;;-0.40;99.90;;;;;;5039484;28;20435;-83
2023/12/08 04:20:04;;;;;;;39.85;19.52;;;-0.40;99.90;;;;;;5014145;28;20044;-84
2023/12/08 04:22:31;;;;;;;44.03;20.50;;;-0.40;99.90;;;;;;5033088;28;20045;-83
2023/12/08 04:24:57;;;;;;;41.80;20.48;;;-0.40;99.90;;;;;;5019218;28;20134;-84
2023/12/08 04:27:23;;;;;;;42.65;20.55;;;-0.40;99.90;;;;;;5043092;28;20846;-83
2023/12/08 04:29:49;;;;;;;40.72;20.42;;;-0.30;99.90;;;;;;5056504;28;20168;-84
2023/12/08 04:32:14;;;;;;;47.70;20.83;;;-0.30;99.90;;;;;;5030374;28;20597;-84
2023/12/08 04:34:40;;;;;;;41.50;19.70;;;-0.40;99.90;;;;;;5022339;28;20383;-84
2023/12/08 04:37:06;;;;;;;37.03;18.83;;;-0.40;99.90;;;;;;5035728;28;20029;-84
2023/12/08 04:39:31;;;;;;;42.60;19.52;;;-0.40;99.90;;;;;;5025808;28;20499;-84
2023/12/08 04:41:57;;;;;;;38.15;18.38;;;-0.40;99.90;;;;;;5036617;28;20067;-84
2023/12/08 04:44:23;;;;;;;39.92;20.08;;;-0.40;99.90;;;;;;5017694;28;20057;-84
2023/12/08 04:46:48;;;;;;;37.35;18.20;;;-0.30;99.90;;;;;;5037749;28;20030;-84
2023/12/08 04:49:14;;;;;;;35.95;18.50;;;-0.30;99.90;;;;;;5040027;28;20044;-83
2023/12/08 04:51:43;;;;;;;44.38;20.80;;;-0.30;99.90;;;;;;5019889;28;20041;-84
2023/12/08 04:54:09;;;;;;;46.28;20.60;;;-0.30;99.90;;;;;;5018243;28;20171;-84
2023/12/08 04:56:34;;;;;;;44.20;20.77;;;-0.30;99.90;;;;;;5039402;28;21117;-83
2023/12/08 04:59:00;;;;;;;43.53;22.00;;;-0.30;99.90;;;;;;5036126;28;20041;-84
2023/12/08 05:01:26;;;;;;;45.83;21.77;;;-0.40;99.90;;;;;;5024852;28;20118;-84
2023/12/08 05:03:52;;;;;;;47.28;22.08;;;-0.40;99.90;;;;;;5021205;28;20506;-84
2023/12/08 05:06:20;;;;;;;43.53;20.55;;;-0.40;99.90;;;;;;5016742;28;20032;-83
2023/12/08 05:08:46;;;;;;;46.90;21.40;;;-0.40;99.90;;;;;;5039099;28;20083;-82
2023/12/08 05:11:12;;;;;;;48.53;22.17;;;-0.40;99.90;;;;;;5022214;28;20036;-83
2023/12/08 05:13:38;;;;;;;48.97;22.98;;;-0.40;99.90;;;;;;5033712;28;20469;-84
2023/12/08 05:16:04;;;;;;;42.78;21.67;;;-0.40;99.90;;;;;;5017116;28;20116;-84
2023/12/08 05:18:29;;;;;;;42.85;20.88;;;-0.40;99.90;;;;;;5014595;28;20040;-83
2023/12/08 05:20:55;;;;;;;51.38;22.15;;;-0.40;99.90;;;;;;5032141;28;20025;-84
2023/12/08 05:23:21;;;;;;;49.67;22.50;;;-0.50;99.90;;;;;;5035611;28;20037;-83
2023/12/08 05:25:46;;;;;;;48.45;23.35;;;-0.40;99.90;;;;;;5042397;28;20025;-83
2023/12/08 05:28:12;;;;;;;50.53;23.48;;;-0.50;99.90;;;;;;5017446;28;20034;-83
2023/12/08 05:30:38;;;;;;;57.83;25.88;;;-0.50;99.90;;;;;;5014924;28;20052;-84
2023/12/08 05:33:03;;;;;;;57.33;26.20;;;-0.50;99.90;;;;;;5038385;28;20056;-84
2023/12/08 05:35:29;;;;;;;65.07;29.95;;;-0.50;99.90;;;;;;5021687;28;20095;-84
2023/12/08 05:37:55;;;;;;;63.17;29.17;;;-0.50;99.90;;;;;;5030579;28;20036;-83
2023/12/08 05:40:20;;;;;;;54.55;24.70;;;-0.50;99.90;;;;;;5022498;28;20577;-84
2023/12/08 05:42:46;;;;;;;70.40;29.35;;;-0.60;99.90;;;;;;5014550;28;20038;-84
2023/12/08 05:45:12;;;;;;;61.63;27.75;;;-0.50;99.90;;;;;;5017886;28;20365;-84
2023/12/08 05:47:37;;;;;;;59.83;24.98;;;-0.50;99.90;;;;;;5016575;28;20065;-83
2023/12/08 05:50:04;;;;;;;52.22;24.10;;;-0.50;99.90;;;;;;5016176;28;20103;-83
2023/12/08 05:52:30;;;;;;;43.33;22.15;;;-0.50;99.90;;;;;;5033917;28;20057;-84
2023/12/08 05:54:56;;;;;;;42.85;21.35;;;-0.50;99.90;;;;;;5018851;28;20038;-83
2023/12/08 05:57:22;;;;;;;47.00;21.90;;;-0.50;99.90;;;;;;5050115;28;20101;-84
2023/12/08 05:59:48;;;;;;;44.00;21.42;;;-0.50;99.90;;;;;;5041625;28;20477;-83
2023/12/08 06:02:13;;;;;;;47.47;22.50;;;-0.40;99.90;;;;;;5024110;28;20025;-84
2023/12/08 06:04:39;;;;;;;41.40;19.85;;;-0.40;99.90;;;;;;5039639;28;20615;-84
2023/12/08 06:07:05;;;;;;;52.15;26.13;;;-0.40;99.90;;;;;;5022247;28;20028;-83
2023/12/08 06:09:30;;;;;;;54.63;25.85;;;-0.30;99.90;;;;;;5041970;28;20090;-83
2023/12/08 06:11:56;;;;;;;60.00;29.77;;;-0.30;99.90;;;;;;5043271;28;20033;-83
2023/12/08 06:14:21;;;;;;;53.53;26.23;;;-0.40;99.90;;;;;;5026130;28;20036;-84
2023/12/08 06:16:47;;;;;;;53.47;25.83;;;-0.40;99.90;;;;;;5019610;28;20030;-83
2023/12/08 06:19:13;;;;;;;52.47;23.08;;;-0.40;99.90;;;;;;5027266;28;20056;-83
2023/12/08 06:21:38;;;;;;;55.90;26.40;;;-0.40;99.90;;;;;;5019607;28;20034;-84
2023/12/08 06:24:04;;;;;;;56.97;27.65;;;-0.40;99.90;;;;;;5043869;28;20044;-84
2023/12/08 06:26:30;;;;;;;48.15;23.40;;;-0.40;99.90;;;;;;5024333;28;20084;-83
2023/12/08 06:28:56;;;;;;;52.47;22.40;;;-0.40;99.90;;;;;;5021996;28;20049;-83
2023/12/08 06:31:21;;;;;;;49.90;22.92;;;-0.40;99.90;;;;;;5039020;28;20037;-83
2023/12/08 06:33:47;;;;;;;49.42;22.13;;;-0.40;99.90;;;;;;5044996;28;20147;-83
2023/12/08 06:36:13;;;;;;;48.03;21.63;;;-0.40;99.90;;;;;;5040228;28;20053;-84
2023/12/08 06:38:39;;;;;;;46.35;20.70;;;-0.40;99.90;;;;;;5021816;28;20044;-84
2023/12/08 06:41:04;;;;;;;44.25;22.52;;;-0.40;99.90;;;;;;5020899;28;20088;-83
2023/12/08 06:43:32;;;;;;;46.92;22.05;;;-0.30;99.90;;;;;;5016996;28;20655;-83
2023/12/08 06:45:57;;;;;;;50.00;22.85;;;-0.30;99.90;;;;;;5059016;28;20554;-83
2023/12/08 06:48:23;;;;;;;57.80;23.92;;;-0.30;99.90;;;;;;5022711;28;20029;-83
2023/12/08 06:50:52;;;;;;;53.45;24.60;;;-0.30;99.90;;;;;;5017803;28;20056;-83
2023/12/08 06:53:33;;;;;;;46.15;22.60;;;-0.40;99.90;;;;;;5041967;28;20055;-83
2023/12/08 06:55:59;;;;;;;48.03;23.00;;;-0.30;99.90;;;;;;5029200;28;20033;-83
2023/12/08 06:58:24;;;;;;;58.25;26.52;;;-0.30;99.90;;;;;;5045179;28;20058;-83
2023/12/08 07:00:50;;;;;;;49.33;23.52;;;-0.30;99.90;;;;;;5013573;28;20033;-83
2023/12/08 07:03:15;;;;;;;59.15;23.73;;;-0.30;99.90;;;;;;5025533;28;20030;-84
2023/12/08 07:05:43;;;;;;;65.60;25.83;;;-0.30;99.90;;;;;;5032962;28;20047;-83
2023/12/08 07:08:09;;;;;;;49.20;23.40;;;-0.30;99.90;;;;;;5026653;28;20037;-84
2023/12/08 07:10:35;;;;;;;60.25;23.42;;;-0.20;99.90;;;;;;5015318;28;20037;-84
2023/12/08 07:13:01;;;;;;;74.32;32.58;;;-0.20;99.90;;;;;;5016094;28;20302;-84
2023/12/08 07:15:27;;;;;;;79.03;36.80;;;-0.10;99.90;;;;;;5034010;28;20033;-83
2023/12/08 07:17:53;;;;;;;71.95;29.92;;;-0.10;99.90;;;;;;5033524;28;20481;-84
2023/12/08 07:20:19;;;;;;;57.88;25.98;;;-0.10;99.90;;;;;;5014143;28;20045;-84
2023/12/08 07:22:44;;;;;;;55.17;24.95;;;-0.10;99.90;;;;;;5032122;28;20029;-83
2023/12/08 07:25:12;;;;;;;52.47;24.45;;;0.00;99.90;;;;;;5014764;28;20037;-84
2023/12/08 07:27:37;;;;;;;53.58;24.02;;;0.00;99.90;;;;;;5016044;28;20492;-84
2023/12/08 07:30:04;;;;;;;44.85;21.35;;;0.00;99.90;;;;;;5019973;28;20121;-84
2023/12/08 07:32:30;;;;;;;51.17;22.02;;;0.00;99.90;;;;;;5033823;28;20029;-84
2023/12/08 07:34:56;;;;;;;48.50;21.98;;;0.00;99.90;;;;;;5046284;28;20026;-84
2023/12/08 07:37:22;;;;;;;46.28;21.95;;;-0.10;99.90;;;;;;5034082;28;20465;-83
2023/12/08 07:39:48;;;;;;;44.33;21.38;;;0.00;99.90;;;;;;5033939;28;20034;-84
2023/12/08 07:42:14;;;;;;;49.67;23.10;;;0.00;99.90;;;;;;5032719;28;20025;-83
2023/12/08 07:44:40;;;;;;;48.25;23.77;;;-0.10;99.90;;;;;;5040102;28;20036;-84
2023/12/08 07:47:07;;;;;;;50.60;24.20;;;-0.10;99.90;;;;;;5031745;28;20044;-84
2023/12/08 07:49:49;;;;;;;58.28;26.95;;;-0.10;99.90;;;;;;5032760;28;20120;-83
2023/12/08 07:52:15;;;;;;;55.33;24.52;;;-0.10;99.90;;;;;;5041775;28;20401;-84
2023/12/08 07:54:41;;;;;;;52.40;22.85;;;-0.10;99.90;;;;;;5032587;28;20025;-83
2023/12/08 07:57:10;;;;;;;56.22;23.77;;;0.00;99.90;;;;;;5017473;28;20124;-83
2023/12/08 07:59:36;;;;;;;55.78;25.35;;;0.00;99.90;;;;;;5032796;28;20685;-83
2023/12/08 08:02:02;;;;;;;53.08;24.23;;;0.00;99.90;;;;;;5019857;28;20140;-83
2023/12/08 08:04:28;;;;;;;55.13;24.13;;;0.00;99.90;;;;;;5036658;28;20417;-84
2023/12/08 08:06:54;;;;;;;46.25;22.77;;;0.00;99.90;;;;;;5032849;28;20136;-84
2023/12/08 08:09:20;;;;;;;57.38;24.23;;;0.00;99.90;;;;;;5033763;28;20538;-84
2023/12/08 08:11:46;;;;;;;51.13;24.70;;;0.00;99.90;;;;;;5031933;28;20028;-83
2023/12/08 08:14:12;;;;;;;54.08;24.33;;;0.00;99.90;;;;;;5037678;28;20025;-83
2023/12/08 08:16:38;;;;;;;56.60;25.67;;;0.00;99.90;;;;;;5019146;28;20037;-84
2023/12/08 08:19:03;;;;;;;60.67;26.80;;;0.00;99.90;;;;;;5031754;28;20026;-83
2023/12/08 08:21:29;;;;;;;60.25;28.88;;;0.00;99.90;;;;;;5040657;28;20516;-83
2023/12/08 08:23:55;;;;;;;63.28;26.42;;;0.00;99.90;;;;;;5038776;28;20039;-83
2023/12/08 08:26:21;;;;;;;58.85;25.52;;;0.10;99.90;;;;;;5040975;28;20026;-84
2023/12/08 08:28:47;;;;;;;59.35;26.60;;;0.10;99.90;;;;;;5015073;28;20033;-84
2023/12/08 08:31:16;;;;;;;62.67;26.65;;;0.10;99.90;;;;;;5014045;28;20390;-83
2023/12/08 08:33:42;;;;;;;62.05;27.08;;;0.10;99.90;;;;;;5029534;28;20064;-83
2023/12/08 08:36:08;;;;;;;66.88;29.52;;;0.10;99.90;;;;;;5028933;28;20064;-83
2023/12/08 08:38:34;;;;;;;61.22;28.13;;;0.10;99.90;;;;;;5029416;28;20029;-83
2023/12/08 08:41:00;;;;;;;54.05;25.60;;;0.00;99.90;;;;;;5049067;28;20032;-84
2023/12/08 08:43:25;;;;;;;60.33;27.33;;;0.10;99.90;;;;;;5012756;28;20021;-83
2023/12/08 08:45:51;;;;;;;62.72;28.45;;;0.10;99.90;;;;;;5048173;28;20038;-83
2023/12/08 08:48:17;;;;;;;59.13;27.00;;;0.10;99.90;;;;;;5030510;28;20112;-83
2023/12/08 08:50:42;;;;;;;61.00;27.55;;;0.10;99.90;;;;;;5039138;28;20043;-83
2023/12/08 08:53:08;;;;;;;64.90;28.58;;;0.10;99.90;;;;;;5030731;28;20505;-83
2023/12/08 08:55:34;;;;;;;65.38;27.67;;;0.10;99.90;;;;;;5063397;28;20034;-82
2023/12/08 08:58:00;;;;;;;69.25;29.88;;;0.10;99.90;;;;;;5011177;28;20025;-83
2023/12/08 09:00:26;;;;;;;66.35;29.33;;;0.10;99.90;;;;;;5010129;28;20176;-83
2023/12/08 09:02:52;;;;;;;75.47;30.15;;;0.10;99.90;;;;;;5012594;28;20033;-82
2023/12/08 09:05:22;;;;;;;72.57;32.13;;;0.10;99.90;;;;;;5013361;28;20036;-83
2023/12/08 09:07:47;;;;;;;76.25;33.63;;;0.10;99.90;;;;;;5018150;28;20052;-83
2023/12/08 09:10:13;;;;;;;75.93;30.83;;;0.10;99.90;;;;;;5034145;28;20025;-83
2023/12/08 09:12:39;;;;;;;87.90;38.45;;;0.10;99.90;;;;;;5029560;28;20079;-83
2023/12/08 09:15:05;;;;;;;80.05;34.65;;;0.20;99.90;;;;;;5031023;28;20428;-83
2023/12/08 09:17:31;;;;;;;78.30;33.35;;;0.10;99.90;;;;;;5029368;28;20038;-82
2023/12/08 09:19:57;;;;;;;80.32;33.53;;;0.10;99.90;;;;;;5011432;28;20040;-82
2023/12/08 09:22:22;;;;;;;89.95;35.03;;;0.10;99.90;;;;;;5033877;28;20804;-83
2023/12/08 09:24:48;;;;;;;95.15;37.88;;;0.20;99.90;;;;;;5033765;28;20427;-82
2023/12/08 09:27:36;;;;;;;82.35;33.88;;;0.10;99.90;;;;;;5038914;28;20025;-83
2023/12/08 09:30:02;;;;;;;94.13;36.33;;;0.20;99.90;;;;;;5021517;28;20075;-82
2023/12/08 09:32:28;;;;;;;68.75;27.40;;;0.20;99.90;;;;;;5018349;28;20033;-82
2023/12/08 09:34:54;;;;;;;73.13;30.30;;;0.20;99.90;;;;;;5052357;28;20029;-83
2023/12/08 09:37:19;;;;;;;84.60;32.90;;;0.20;99.90;;;;;;5020657;28;20038;-83
2023/12/08 09:39:45;;;;;;;102.15;36.17;;;0.30;99.90;;;;;;5041497;28;20033;-83
2023/12/08 09:42:27;;;;;;;57.22;26.13;;;0.30;99.90;;;;;;5019109;28;20029;-83
2023/12/08 09:44:54;;;;;;;55.90;24.83;;;0.40;99.90;;;;;;5020497;28;20032;-83
2023/12/08 09:47:22;;;;;;;47.78;22.75;;;0.40;99.90;;;;;;5019654;28;20068;-83
2023/12/08 09:49:49;;;;;;;59.35;24.60;;;0.50;99.90;;;;;;5035744;28;20037;-83
2023/12/08 09:52:16;;;;;;;53.67;22.98;;;0.50;99.90;;;;;;5018187;28;20026;-83
2023/12/08 09:54:43;;;;;;;56.13;23.58;;;0.60;99.90;;;;;;5013696;28;20049;-82
2023/12/08 09:57:09;;;;;;;51.00;23.27;;;0.60;99.90;;;;;;5014063;28;20034;-83
2023/12/08 09:59:41;;;;;;;47.67;22.10;;;0.60;99.90;;;;;;5023857;28;20066;-83
2023/12/08 10:02:10;;;;;;;50.45;22.42;;;0.70;99.90;;;;;;5032672;28;20183;-83
2023/12/08 10:04:36;;;;;;;50.53;24.15;;;0.70;99.90;;;;;;5041553;28;20637;-83
2023/12/08 10:07:05;;;;;;;63.70;26.63;;;0.70;99.90;;;;;;5017552;28;20029;-83
2023/12/08 10:09:32;;;;;;;75.38;21.38;;;0.80;99.90;;;;;;5021210;28;20058;-84
2023/12/08 10:12:03;;;;;;;60.85;21.20;;;0.80;99.90;;;;;;5019134;28;20030;-84
2023/12/08 10:14:29;;;;;;;175.55;25.83;;;0.90;99.90;;;;;;5039993;28;20025;-84
2023/12/08 10:16:55;;;;;;;142.10;23.42;;;0.90;99.90;;;;;;5016793;28;20057;-83
2023/12/08 10:19:21;;;;;;;100.70;22.33;;;1.00;99.90;;;;;;5018938;28;20065;-83
2023/12/08 10:22:03;;;;;;;62.05;22.20;;;1.10;99.90;;;;;;5033225;28;20044;-84
2023/12/08 10:24:30;;;;;;;124.05;26.65;;;1.20;99.90;;;;;;5026392;28;20041;-84
2023/12/08 10:27:00;;;;;;;172.15;26.75;;;1.30;99.90;;;;;;5036587;28;20412;-84
2023/12/08 10:29:34;;;;;;;202.45;29.88;;;1.30;99.90;;;;;;5022264;28;20455;-84
2023/12/08 10:32:01;;;;;;;122.93;24.67;;;1.40;99.90;;;;;;5036609;28;20033;-84
2023/12/08 10:34:27;;;;;;;122.40;24.55;;;1.50;99.90;;;;;;5018264;28;20499;-84
2023/12/08 10:36:57;;;;;;;51.70;19.27;;;1.50;99.90;;;;;;5023378;28;20036;-85
2023/12/08 10:39:24;;;;;;;101.65;22.63;;;1.50;99.90;;;;;;5019825;28;20500;-84
2023/12/08 10:41:51;;;;;;;394.58;29.95;;;1.50;99.90;;;;;;5035443;28;20451;-84
2023/12/08 10:44:23;;;;;;;238.52;23.08;;;1.50;99.90;;;;;;5019578;28;20052;-84
2023/12/08 10:46:49;;;;;;;253.10;25.10;;;1.50;99.90;;;;;;5009039;28;20486;-84
2023/12/08 10:49:19;;;;;;;165.55;22.58;;;1.60;99.90;;;;;;5015543;28;20511;-84
2023/12/08 10:51:49;;;;;;;210.25;22.40;;;1.60;99.90;;;;;;5032141;28;20062;-84
2023/12/08 10:54:18;;;;;;;141.00;25.45;;;1.50;99.90;;;;;;5015813;28;20064;-84
2023/12/08 10:56:46;;;;;;;195.77;25.30;;;1.60;99.90;;;;;;5035712;28;20033;-84
2023/12/08 10:59:21;;;;;;;147.00;22.40;;;1.60;99.90;;;;;;5017728;28;20048;-84
2023/12/08 11:01:48;;;;;;;37.33;15.70;;;1.60;99.90;;;;;;5034042;28;20072;-84
2023/12/08 11:04:19;;;;;;;162.98;21.63;;;1.60;99.90;;;;;;5045931;28;20079;-84
2023/12/08 11:07:02;;;;;;;;;;;1.70;99.90;;;;;;5032027;28;20069;-84
2023/12/08 11:09:30;;;;;;;97.55;19.67;;;1.70;99.90;;;;;;5026708;28;19959;-84
2023/12/08 11:12:03;;;;;;;58.88;15.63;;;1.70;99.90;;;;;;5036326;28;20505;-84
2023/12/08 11:14:41;;;;;;;187.23;21.75;;;1.80;99.90;;;;;;5015981;28;20439;-84
2023/12/08 11:17:19;;;;;;;47.08;17.05;;;1.90;99.90;;;;;;5015992;28;20056;-84
2023/12/08 11:19:46;;;;;;;36.88;14.93;;;1.90;99.90;;;;;;5024137;28;20029;-84
2023/12/08 11:22:12;;;;;;;144.68;20.10;;;2.00;99.90;;;;;;5018229;28;20511;-84
2023/12/08 11:24:40;;;;;;;288.73;23.58;;;2.00;99.90;;;;;;5016938;28;20025;-84
2023/12/08 11:27:27;;;;;;;267.88;24.23;;;1.90;99.90;;;;;;5053775;28;20041;-84
2023/12/08 11:29:58;;;;;;;116.18;18.50;;;2.00;99.90;;;;;;5017511;28;20064;-84
2023/12/08 11:32:43;;;;;;;200.73;23.98;;;2.00;99.90;;;;;;5025096;28;20404;-84
2023/12/08 11:35:12;;;;;;;178.63;25.42;;;2.10;99.90;;;;;;5017166;28;20121;-84
2023/12/08 11:37:39;;;;;;;416.45;36.88;;;2.10;99.90;;;;;;5020991;28;20713;-84
2023/12/08 11:40:11;;;;;;;147.52;24.08;;;2.10;99.90;;;;;;5038164;28;20127;-84
2023/12/08 11:42:38;;;;;;;584.03;46.63;;;2.20;99.90;;;;;;5032736;28;20029;-84
2023/12/08 11:45:07;;;;;;;254.45;30.75;;;2.20;99.90;;;;;;5025515;28;20037;-84
2023/12/08 11:47:33;;;;;;;254.95;28.00;;;2.10;99.90;;;;;;5038140;28;20029;-84
2023/12/08 11:49:59;;;;;;;393.25;34.53;;;2.10;99.90;;;;;;5019765;28;20040;-84
2023/12/08 11:52:29;;;;;;;255.70;28.90;;;2.10;99.90;;;;;;5019368;28;20025;-84
2023/12/08 11:55:12;;;;;;;393.77;33.43;;;2.00;99.90;;;;;;5039257;28;20039;-83
2023/12/08 11:57:59;;;;;;;353.05;33.33;;;2.00;99.90;;;;;;5025390;28;20064;-84
2023/12/08 12:00:29;;;;;;;311.90;28.50;;;2.00;99.90;;;;;;5032640;28;20112;-84
2023/12/08 12:02:57;;;;;;;287.33;26.40;;;2.00;99.90;;;;;;5034091;28;20067;-84
2023/12/08 12:05:22;;;;;;;332.90;31.70;;;2.00;99.90;;;;;;5039475;28;20029;-84
2023/12/08 12:07:51;;;;;;;389.65;45.03;;;2.10;99.90;;;;;;5039763;28;20112;-84
2023/12/08 12:10:20;;;;;;;366.58;49.33;;;2.10;99.90;;;;;;5032914;28;20038;-84
2023/12/08 12:12:56;;;;;;;447.50;37.78;;;2.10;99.90;;;;;;5039365;28;20025;-84
2023/12/08 12:15:25;;;;;;;458.50;37.03;;;2.10;99.90;;;;;;5032220;28;20366;-83
2023/12/08 12:17:53;;;;;;;633.05;53.05;;;2.10;99.90;;;;;;5040471;28;20029;-83
2023/12/08 12:20:19;;;;;;;352.27;42.05;;;2.10;99.90;;;;;;5033032;28;20049;-83
2023/12/08 12:22:45;;;;;;;308.17;43.50;;;2.20;99.90;;;;;;5042341;28;20040;-84
2023/12/08 12:25:11;;;;;;;414.48;54.67;;;2.20;99.90;;;;;;5019010;28;20674;-84
2023/12/08 12:27:41;;;;;;;616.88;56.35;;;2.30;99.90;;;;;;5020359;28;20116;-83
2023/12/08 12:30:09;;;;;;;454.07;39.07;;;2.30;99.90;;;;;;5019529;28;20033;-84